• Join FlightAware (Why Join?)
  • Login
  • US Flag 
04:07AM EDT


 

Airport Tracker/Info


-or-


 

Live Flight TrackerFlight Track Log ✈ EJA922 ✈ 19-Sep-2013 ✈ KANW - KRST

Flight Track Log - Related Links

Times and Time Zones

All times are in EDT time to prevent confusion due to time zone crossing. See the EJA922 flight status page for this flight to view local times or setup timezone preferences in your user account.

Time Position Orientation Groundspeed Altitude Reporting Facility
EDT Latitude Longitude Course Direction KTS MPH feet Rate Location/Type
10:12AM 42.5958 -99.8400 75° East 282 325 9,700  Level Denver Center
10:13AM 42.5836 -99.7261 98° East 297 342 11,400 1,560 Climbing Denver Center
10:14AM 42.5681 -99.5947 99° East 333 383 12,900 1,920 Climbing Minneapolis Center
10:15AM 42.5656 -99.4408 91° East 382 440 15,300 2,460 Climbing Minneapolis Center
10:16AM 42.5900 -99.2261 81° East 409 471 18,600 2,100 Climbing Denver Center
10:17AM 42.7402 -99.2285 75° East  Level Estimated
10:17AM 42.6078 -99.0669 81° East 422 486 20,200  Level Denver Center
10:18AM 42.6225 -98.9328 81° East 441 507 21,500 1,740 Climbing Minneapolis Center
10:19AM 42.6414 -98.7597 82° East 456 525 23,400 1,560 Climbing Minneapolis Center
10:20AM 42.6614 -98.5836 81° East 466 536 24,800 1,560 Climbing Minneapolis Center
10:21AM 42.6792 -98.4036 82° East 476 548 26,600 1,560 Climbing Minneapolis Center
10:22AM 42.6981 -98.2214 82° East 483 556 28,000 1,020 Climbing Minneapolis Center
10:23AM 42.7158 -98.0378 82° East 487 560 28,800 480 Climbing Minneapolis Center
10:24AM 42.7339 -97.8589 82° East 486 559 29,000 60 Climbing Minneapolis Center
10:25AM 42.7561 -97.6467 82° East 480 552 29,000  Level Minneapolis Center
10:26AM 42.7733 -97.4658 83° East 482 555 29,000  Level Minneapolis Center
10:27AM 42.7914 -97.2836 82° East 486 559 29,000  Level Minneapolis Center
10:28AM 42.8078 -97.0992 83° East 490 564 29,000  Level Minneapolis Center
10:30AM 42.8256 -96.9147 82° East 492 566 29,000  Level Minneapolis Center
10:31AM 42.8414 -96.7303 83° East 493 567 29,000  Level Minneapolis Center
10:32AM 42.8581 -96.5467 83° East 492 566 29,000  Level Minneapolis Center
10:33AM 42.8775 -96.3261 83° East 492 566 29,000  Level Minneapolis Center
10:34AM 42.8933 -96.1356 83° East 501 577 29,000  Level Minneapolis Center
10:35AM 42.9100 -95.9414 83° East 513 590 29,000 -420 Level Minneapolis Center
10:36AM 42.9258 -95.7447 84° East 520 598 28,200 -1,620 Descending Minneapolis Center
10:37AM 42.9414 -95.5436 84° East 529 609 25,800 -1,860 Descending Minneapolis Center
10:38AM 42.9575 -95.3453 84° East 531 611 24,400 -1,740 Descending Minneapolis Center
10:39AM 42.9714 -95.1547 84° East 516 594 22,300 -2,280 Descending Minneapolis Center
10:40AM 42.9883 -94.9292 84° East 503 579 19,800 -2,400 Descending Minneapolis Center
10:41AM 43.0025 -94.7467 84° East 491 565 17,400 -2,220 Descending Minneapolis Center
10:42AM 43.0144 -94.5703 85° East 477 549 15,300 -2,040 Descending Minneapolis Center
10:43AM 43.0258 -94.4092 84° East 438 504 13,200 -2,160 Descending Minneapolis Center
10:44AM 43.0378 -94.2344 85° East 421 484 10,900 -1,440 Descending Minneapolis Center
10:45AM 43.0481 -94.0794 85° East 415 478 10,300 -480 Descending Minneapolis Center
10:46AM 43.0575 -93.9172 85° East 428 493 10,000 -180 Descending Minneapolis Center
10:47AM 43.0678 -93.7558 85° East 431 496 10,000  Level Minneapolis Center
10:48AM 43.0781 -93.5978 85° East 424 488 10,000  Level Minneapolis Center
10:49AM 43.0878 -93.4392 85° East 423 487 10,000  Level Minneapolis Center
10:50AM 43.1494 -93.2719 63° Northeast 425 489 10,000  Level Minneapolis Center
10:51AM 43.2464 -93.1769 36° Northeast 430 495 10,000  Level Minneapolis Center
10:52AM 43.3556 -93.0656 37° Northeast 438 504 10,000 -540 Level Minneapolis Center
10:53AM 43.4497 -92.9708 36° Northeast 428 493 9,000 -960 Descending Minneapolis Center
10:54AM 43.5331 -92.8842 37° Northeast 348 400 8,100 -1,200 Descending Minneapolis Center
10:55AM 43.5928 -92.7986 46° Northeast 317 365 6,600 -1,020 Descending Minneapolis Center
10:56AM 43.6514 -92.7161 46° Northeast 307 353 6,100 -960 Descending Minneapolis Center
10:57AM 43.6669 -92.6017 79° East 287 330 4,700 -1,020 Descending Minneapolis Center
10:58AM 43.7261 -92.5478 33° Northeast 265 305 4,100 -600 Descending Minneapolis Center
10:59AM 43.7975 -92.4994 26° Northeast 250 288 3,500 -540 Descending Minneapolis Center
11:00AM 43.8619 -92.4572 25° Northeast 241 277 3,000 -540 Descending Minneapolis Center
11:01AM 43.9122 -92.4292 22° Northeast 206 237 2,500 -540 Descending Minneapolis Center
11:03AM 43.9336 -92.4739 304° West 140 161 1,900 -660 Descending Minneapolis Center
11:04AM 43.9086 -92.4992 216° Southwest 132 152 1,200 -720 Descending Minneapolis Center